EW9353 Weather Reports


time (UTC)temp
C
wind
direction
speed
KPH
gust
KPH
rain 1hr
cm
rain 24hr
cm
rain mn
cm
humidity
%
barometer
mb
20190617133046 20 231 1.6 9.7 0.00 0.00 0.00 55 1016.3
20190617131533 20 246 6.4 12.9 0.00 0.00 0.00 56 1016.4
20190617130032 20 258 6.4 12.9 0.00 0.00 0.00 56 1016.4
20190617124538 20 281 8.0 11.3 0.00 0.00 0.00 56 1016.2
20190617123040 20 241 4.8 9.7 0.00 0.00 0.00 55 1016.2
20190617121521 20 30 1.6 9.7 0.00 0.00 0.00 58 1016.3
20190617120036 20 237 3.2 9.7 0.00 0.00 0.00 55 1016.4
20190617114519 20 253 3.2 9.7 0.00 0.00 0.00 55 1016.4
20190617113021 20 228 4.8 11.3 0.00 0.00 0.00 57 1016.4
20190617111543 19 238 6.4 12.9 0.00 0.00 0.00 59 1016.5
20190617110017 20 252 6.4 12.9 0.00 0.00 0.00 59 1016.6
20190617104520 20 262 8.0 16.1 0.00 0.00 0.00 57 1016.4
20190617103020 20 312 1.6 9.7 0.00 0.00 0.00 55 1016.2
20190617101514 20 157 0.0 9.7 0.00 0.00 0.00 55 1016.4
20190617100006 18 238 1.6 8.0 0.00 0.00 0.00 58 1016.5
20190617094505 18 197 3.2 8.0 0.00 0.00 0.00 56 1016.5
20190617093003 18 248 3.2 6.4 0.00 0.00 0.00 57 1016.5
20190617091657 18 348 0.0 6.4 0.00 0.00 0.00 59 1016.6
20190617090117 17 278 1.6 9.7 0.00 0.00 0.00 63 1016.6
20190617084651 17 80 0.0 9.7 0.00 0.00 0.00 63 1016.6
20190617083122 16 17 3.2 8.0 0.00 0.00 0.00 64 1016.6
20190617081631 15 333 1.6 4.8 0.00 0.00 0.00 68 1016.8
20190617080116 14 333 0.0 3.2 0.00 0.00 0.00 72 1017.1
20190617074645 13 5 0.0 3.2 0.00 0.00 0.00 77 1017.2
20190617073134 13 5 0.0 3.2 0.00 0.00 0.00 81 1017.4
20190617071558 11 5 0.0 1.6 0.00 0.00 0.00 89 1017.7
20190617070049 9 5 0.0 1.6 0.00 0.00 0.00 91 1017.9
20190617064553 8 5 0.0 0.0 0.00 0.00 0.00 91 1017.7
20190617063112 7 5 0.0 1.6 0.00 0.00 0.00 90 1017.6
20190617061543 7 5 0.0 1.6 0.00 0.00 0.00 92 1017.4
20190617060107 5 196 0.0 0.0 0.00 0.00 0.00 93 1017.4
20190617054610 3 196 0.0 0.0 0.00 0.00 0.00 93 1017.4
20190617053037 3 196 0.0 0.0 0.00 0.00 0.00 91 1017.5
20190617051547 3 196 0.0 0.0 0.00 0.00 0.00 92 1017.4
20190617050025 3 196 0.0 0.0 0.00 0.00 0.00 91 1017.3
20190617044527 3 196 0.0 0.0 0.00 0.00 0.00 90 1017.3
20190617043030 3 196 0.0 1.6 0.00 0.00 0.00 91 1017.5
20190617041513 3 196 0.0 1.6 0.00 0.00 0.00 90 1017.5
20190617040020 3 196 0.0 1.6 0.00 0.00 0.00 90 1017.6
20190617034521 3 196 0.0 0.0 0.00 0.00 0.00 90 1017.6
20190617033003 4 196 0.0 3.2 0.00 0.00 0.00 91 1017.6
20190617031653 5 196 0.0 0.0 0.00 0.00 0.00 91 1017.8
20190617030241 5 196 0.0 0.0 0.00 0.00 0.00 91 1017.8
20190617024634 5 196 0.0 3.2 0.00 0.00 0.00 90 1018.1
20190617023130 5 196 0.0 1.6 0.00 0.00 0.00 90 1018.2
20190617021732 5 196 0.0 0.0 0.00 0.00 0.00 90 1018.3
20190617020213 5 196 1.6 4.8 0.00 0.00 0.00 89 1018.5
20190617014710 5 196 0.0 0.0 0.00 0.00 0.00 90 1018.6
20190617013132 6 196 0.0 1.6 0.00 0.00 0.00 90 1018.4
20190617011549 6 196 0.0 3.2 0.00 0.00 0.00 90 1018.6
20190617010148 6 196 0.0 0.0 0.00 0.00 0.00 92 1018.7
20190617004642 6 196 0.0 3.2 0.00 0.00 0.00 90 1018.9
20190617003112 7 196 0.0 3.2 0.00 0.00 0.00 87 1018.9
20190617001548 7 196 0.0 1.6 0.00 0.00 0.00 89 1018.9
20190617000047 7 196 0.0 1.6 0.00 0.00 0.00 89 1019.0
20190616234540 8 196 0.0 1.6 0.00 0.00 0.00 89 1019.1
20190616233059 8 196 0.0 4.8 0.00 0.00 0.00 88 1019.0
20190616231610 8 196 0.0 3.2 0.00 0.00 0.00 87 1019.0
20190616230111 8 216 0.0 3.2 0.00 0.00 0.00 87 1019.2
20190616224628 9 217 1.6 3.2 0.00 0.00 0.00 86 1019.3
20190616223029 10 217 0.0 3.2 0.00 0.00 0.00 84 1019.3
20190616221554 10 217 0.0 3.2 0.00 0.00 0.00 84 1019.3
20190616220025 11 218 1.6 3.2 0.00 0.00 0.00 81 1019.4
20190616214524 12 218 1.6 4.8 0.00 0.00 0.00 77 1019.5
20190616213046 13 242 3.2 6.4 0.00 0.00 0.00 76 1019.4
20190616211534 13 241 0.0 4.8 0.00 0.00 0.00 74 1019.3
20190616210059 14 241 4.8 9.7 0.00 0.00 0.00 72 1019.4
20190616204555 15 227 3.2 6.4 0.00 0.00 0.00 72 1019.2
20190616203020 15 227 6.4 9.7 0.00 0.00 0.00 70 1019.0
20190616201537 15 202 6.4 11.3 0.00 0.00 0.00 69 1018.8
20190616200017 16 213 6.4 14.5 0.00 0.00 0.00 68 1018.8
20190616194525 17 232 8.0 14.5 0.00 0.00 0.00 66 1018.7
20190616193019 17 243 9.7 19.3 0.00 0.00 0.00 64 1018.8
20190616191543 18 231 11.3 16.1 0.00 0.00 0.00 62 1018.6
20190616190016 18 244 11.3 17.7 0.00 0.00 0.00 62 1018.4
20190616184539 19 257 11.3 20.9 0.00 0.00 0.00 61 1018.2
20190616183027 20 255 11.3 22.5 0.00 0.00 0.00 59 1018.1
20190616181524 20 263 12.9 20.9 0.00 0.00 0.00 58 1018.0
20190616180014 21 257 14.5 22.5 0.00 0.00 0.00 57 1017.8
20190616174519 21 254 11.3 20.9 0.00 0.00 0.00 56 1017.6
20190616173015 22 256 14.5 22.5 0.00 0.00 0.00 54 1017.5
20190616171510 22 257 12.9 20.9 0.00 0.00 0.00 54 1017.3
20190616170014 22 254 14.5 24.1 0.00 0.00 0.00 52 1017.1
20190616164509 23 219 6.4 14.5 0.00 0.00 0.00 51 1017.0
20190616163013 23 296 8.0 20.9 0.00 0.00 0.00 51 1017.1
20190616161501 23 265 8.0 16.1 0.00 0.00 0.00 51 1017.3
20190616160238 23 280 11.3 17.7 0.00 0.00 0.00 52 1017.3
20190616154614 22 276 8.0 19.3 0.00 0.00 0.00 55 1017.4
20190616153151 22 295 8.0 19.3 0.00 0.00 0.00 54 1017.4
20190616151709 22 290 8.0 24.1 0.00 0.00 0.00 55 1017.4
20190616150137 22 244 9.7 17.7 0.00 0.00 0.00 54 1017.6
20190616144659 22 238 8.0 19.3 0.00 0.00 0.00 56 1017.8
20190616143210 22 274 11.3 20.9 0.00 0.00 0.00 55 1017.8
20190616141706 22 240 12.9 19.3 0.00 0.00 0.00 55 1018.1
20190616140137 22 239 9.7 17.7 0.00 0.00 0.00 53 1018.1
20190616134829 22 286 12.9 24.1 0.00 0.00 0.00 53 1018.1
20190616133213 22 268 11.3 20.9 0.00 0.00 0.00 50 1018.1